Time;durP1;ratioP1;P1;durP2;ratioP2;P2;SDS_P1;SDS_P2;PMS_P1;PMS_P2;Temp;Humidity;BMP_temperature;BMP_pressure;BME280_temperature;BME280_humidity;BME280_pressure;Samples;Min_cycle;Max_cycle;Signal;HPM_P1;HPM_P2
2022/05/14 00:01:05;;;;;;;1999.90;999.90;;;12.60;99.90;;;;;;4964030;28;20057;-72
2022/05/14 00:03:33;;;;;;;1999.90;999.90;;;12.60;99.90;;;;;;4961015;28;20147;-72
2022/05/14 00:06:01;;;;;;;1999.90;999.90;;;12.50;99.90;;;;;;4965911;28;20051;-72
2022/05/14 00:08:28;;;;;;;1999.90;999.90;;;12.50;99.90;;;;;;4963922;28;20133;-72
2022/05/14 00:13:39;;;;;;;1999.90;999.90;;;12.50;99.90;;;;;;4964504;28;20089;-72
2022/05/14 00:16:06;;;;;;;1999.90;999.90;;;12.50;99.90;;;;;;4961972;28;20035;-72
2022/05/14 00:18:32;;;;;;;1999.90;999.90;;;12.40;99.90;;;;;;4962931;28;20051;-72
2022/05/14 00:20:59;;;;;;;1999.90;999.90;;;12.40;99.90;;;;;;4945316;28;20305;-72
2022/05/14 00:23:26;;;;;;;1999.90;999.90;;;12.40;99.90;;;;;;4961285;28;20074;-72
2022/05/14 00:25:51;;;;;;;1999.90;999.90;;;12.30;99.90;;;;;;4947994;28;20046;-72
2022/05/14 00:28:18;;;;;;;1999.90;999.90;;;12.30;99.90;;;;;;4964665;28;20406;-72
2022/05/14 00:30:44;;;;;;;1999.90;999.90;;;12.30;99.90;;;;;;4961902;28;20103;-72
2022/05/14 00:33:09;;;;;;;1999.90;999.90;;;12.30;99.90;;;;;;4963531;28;20129;-72
2022/05/14 00:35:36;;;;;;;1999.90;999.90;;;12.30;99.90;;;;;;4951386;28;20421;-72
2022/05/14 00:38:02;;;;;;;1999.90;999.90;;;12.30;99.90;;;;;;4968390;28;20391;-72
2022/05/14 00:40:33;;;;;;;1999.90;999.90;;;12.30;99.90;;;;;;4949892;28;20046;-72
2022/05/14 00:42:59;;;;;;;1999.90;999.90;;;12.20;99.90;;;;;;4967940;28;20034;-72
2022/05/14 00:45:26;;;;;;;1999.90;999.90;;;12.20;99.90;;;;;;4964390;28;20038;-72
2022/05/14 00:47:56;;;;;;;1999.90;999.90;;;12.10;99.90;;;;;;4950200;28;20501;-72
2022/05/14 00:50:25;;;;;;;1999.90;999.90;;;12.20;99.90;;;;;;4965512;28;20086;-72
2022/05/14 00:52:58;;;;;;;1999.90;999.90;;;12.10;99.90;;;;;;4951001;28;20054;-72
2022/05/14 00:55:25;;;;;;;1999.90;999.90;;;12.10;99.90;;;;;;4967734;28;20529;-72
2022/05/14 00:57:51;;;;;;;1999.90;999.90;;;12.10;99.90;;;;;;4965695;28;20823;-72
2022/05/14 01:00:21;;;;;;;1999.90;999.90;;;12.10;99.90;;;;;;4965093;28;20125;-72
2022/05/14 01:02:47;;;;;;;1999.90;999.90;;;12.10;99.90;;;;;;4950781;28;20078;-72
2022/05/14 01:05:14;;;;;;;1999.90;999.90;;;12.10;99.90;;;;;;4957200;28;20086;-72
2022/05/14 01:07:41;;;;;;;1999.90;999.90;;;12.10;99.90;;;;;;4996766;28;20035;-72
2022/05/14 01:10:12;;;;;;;1999.90;999.90;;;12.00;99.90;;;;;;4948574;28;20043;-72
2022/05/14 01:12:43;;;;;;;1999.90;999.90;;;12.10;99.90;;;;;;4965155;28;20039;-72
2022/05/14 01:15:11;;;;;;;1999.90;999.90;;;12.10;99.90;;;;;;4966389;28;20453;-72
2022/05/14 01:17:37;;;;;;;1999.90;999.90;;;12.10;99.90;;;;;;4951596;28;20403;-72
2022/05/14 01:20:04;;;;;;;1999.90;999.90;;;12.00;99.90;;;;;;4970519;28;20045;-72
2022/05/14 01:22:50;;;;;;;1999.90;999.90;;;12.00;99.90;;;;;;4988011;28;20050;-72
2022/05/14 01:28:04;;;;;;;1999.90;999.90;;;12.00;99.90;;;;;;4965044;28;20047;-72
2022/05/14 01:30:30;;;;;;;1999.90;999.90;;;11.90;99.90;;;;;;4949912;28;20568;-72
2022/05/14 01:33:05;;;;;;;1999.90;999.90;;;11.90;99.90;;;;;;4989696;28;20031;-72
2022/05/14 01:35:33;;;;;;;1999.90;999.90;;;11.90;99.90;;;;;;4950516;28;20461;-72
2022/05/14 01:37:58;;;;;;;1999.90;999.90;;;11.90;99.90;;;;;;4963001;28;20031;-72
2022/05/14 01:40:24;;;;;;;1999.90;999.90;;;11.90;99.90;;;;;;4948123;28;20039;-72
2022/05/14 01:42:50;;;;;;;1999.90;999.90;;;11.90;99.90;;;;;;4964335;28;20574;-72
2022/05/14 01:45:15;;;;;;;1999.90;999.90;;;11.90;99.90;;;;;;4963671;28;20123;-72
2022/05/14 01:47:41;;;;;;;1999.90;999.90;;;11.90;99.90;;;;;;4984340;28;20103;-72
2022/05/14 01:50:07;;;;;;;1999.90;999.90;;;11.90;99.90;;;;;;4950541;28;20055;-72
2022/05/14 01:52:33;;;;;;;1999.90;999.90;;;11.90;99.90;;;;;;4965212;28;20517;-72
2022/05/14 01:54:58;;;;;;;1999.90;999.90;;;11.90;99.90;;;;;;4949595;28;20125;-72
2022/05/14 01:57:24;;;;;;;1999.90;999.90;;;11.80;99.90;;;;;;4965562;28;20047;-72
2022/05/14 01:59:49;;;;;;;1999.90;999.90;;;11.80;99.90;;;;;;4965737;28;20043;-72
2022/05/14 02:02:15;;;;;;;1999.90;999.90;;;11.80;99.90;;;;;;4947299;28;20427;-72
2022/05/14 02:04:41;;;;;;;1999.90;999.90;;;11.70;99.90;;;;;;4966609;28;20133;-72
2022/05/14 02:07:06;;;;;;;1999.90;999.90;;;11.60;99.90;;;;;;4961979;28;20051;-72
2022/05/14 02:09:32;;;;;;;1999.90;999.90;;;11.50;99.90;;;;;;4950118;28;20054;-72
2022/05/14 02:11:57;;;;;;;1999.90;999.90;;;11.50;99.90;;;;;;4950563;28;20126;-72
2022/05/14 02:14:23;;;;;;;1999.90;999.90;;;11.50;99.90;;;;;;4949216;28;20075;-72
2022/05/14 02:16:48;;;;;;;1999.90;999.90;;;11.40;99.90;;;;;;4964882;28;20039;-72
2022/05/14 02:19:14;;;;;;;1999.90;999.90;;;11.40;99.90;;;;;;4949572;28;20042;-72
2022/05/14 02:21:40;;;;;;;1999.90;999.90;;;11.30;99.90;;;;;;4948668;28;20570;-72
2022/05/14 02:24:05;;;;;;;1999.90;999.90;;;11.20;99.90;;;;;;4948574;28;20038;-72
2022/05/14 02:26:32;;;;;;;1999.90;999.90;;;11.20;99.90;;;;;;4966410;28;20050;-73
2022/05/14 02:28:57;;;;;;;1999.90;999.90;;;11.20;99.90;;;;;;4966039;28;20058;-72
2022/05/14 02:31:23;;;;;;;1999.90;999.90;;;11.10;99.90;;;;;;4949299;28;20042;-72
2022/05/14 02:33:49;;;;;;;1999.90;999.90;;;11.10;99.90;;;;;;4965166;28;20694;-72
2022/05/14 02:36:15;;;;;;;1999.90;999.90;;;11.00;99.90;;;;;;4979741;28;20066;-72
2022/05/14 02:38:41;;;;;;;1999.90;999.90;;;11.00;99.90;;;;;;4962500;28;20043;-72
2022/05/14 02:41:08;;;;;;;1999.90;999.90;;;10.90;99.90;;;;;;4948984;28;20069;-72
2022/05/14 02:43:34;;;;;;;1999.90;999.90;;;10.90;99.90;;;;;;4963232;28;20537;-72
2022/05/14 02:46:03;;;;;;;1999.90;999.90;;;10.90;99.90;;;;;;4949279;28;20043;-72
2022/05/14 02:48:29;;;;;;;1999.90;999.90;;;10.90;99.90;;;;;;4949837;28;20047;-72
2022/05/14 02:51:00;;;;;;;1999.90;999.90;;;10.80;99.90;;;;;;4950092;28;20494;-72
2022/05/14 02:53:26;;;;;;;1999.90;999.90;;;10.80;99.90;;;;;;4966141;28;20093;-72
2022/05/14 02:55:52;;;;;;;1999.90;999.90;;;10.80;99.90;;;;;;4963900;28;20038;-72
2022/05/14 02:59:07;;;;;;;1999.90;999.90;;;10.70;99.90;;;;;;4997779;28;20039;-71
2022/05/14 03:01:05;;;;;;;1999.90;999.90;;;10.70;99.90;;;;;;4985072;28;20082;-71
2022/05/14 03:03:31;;;;;;;1999.90;999.90;;;10.70;99.90;;;;;;4950207;28;20058;-71
2022/05/14 03:05:57;;;;;;;1999.90;999.90;;;10.70;99.90;;;;;;4948873;28;20779;-71
2022/05/14 03:08:23;;;;;;;1999.90;999.90;;;10.60;99.90;;;;;;4963275;28;20072;-74
2022/05/14 03:10:49;;;;;;;1999.90;999.90;;;10.60;99.90;;;;;;4946356;28;20059;-74
2022/05/14 03:13:15;;;;;;;1999.90;999.90;;;10.60;99.90;;;;;;4974893;28;20043;-74
2022/05/14 03:15:41;;;;;;;1999.90;999.90;;;10.50;99.90;;;;;;4956564;28;20039;-74
2022/05/14 03:18:07;;;;;;;1999.90;999.90;;;10.40;99.90;;;;;;4943550;28;20046;-74
2022/05/14 03:20:32;;;;;;;1999.90;999.90;;;10.40;99.90;;;;;;4995402;28;20403;-74
2022/05/14 03:22:58;;;;;;;1999.90;999.90;;;10.40;99.90;;;;;;4961943;28;20081;-74
2022/05/14 03:25:24;;;;;;;1999.90;999.90;;;10.30;99.90;;;;;;4949587;28;20126;-74
2022/05/14 03:27:50;;;;;;;1999.90;999.90;;;10.30;99.90;;;;;;4986932;28;20047;-74
2022/05/14 03:30:16;;;;;;;1999.90;999.90;;;10.30;99.90;;;;;;5020674;28;20418;-74
2022/05/14 03:32:43;;;;;;;1999.90;999.90;;;10.30;99.90;;;;;;4961786;28;20067;-74
2022/05/14 03:35:09;;;;;;;1999.90;999.90;;;10.20;99.90;;;;;;4950225;28;20035;-74
2022/05/14 03:37:35;;;;;;;1999.90;999.90;;;10.20;99.90;;;;;;4985638;28;20096;-74
2022/05/14 03:40:02;;;;;;;1999.90;999.90;;;10.20;99.90;;;;;;4931387;28;20066;-74
2022/05/14 03:42:29;;;;;;;1999.90;999.90;;;10.10;99.90;;;;;;4983783;28;20105;-74
2022/05/14 03:44:54;;;;;;;1999.90;999.90;;;10.10;99.90;;;;;;4986510;28;20090;-74
2022/05/14 03:47:20;;;;;;;1999.90;999.90;;;10.10;99.90;;;;;;4950371;28;20079;-74
2022/05/14 03:49:46;;;;;;;1999.90;999.90;;;10.20;99.90;;;;;;4974895;28;20043;-74
2022/05/14 03:52:12;;;;;;;1999.90;999.90;;;10.20;99.90;;;;;;4948851;28;20070;-74
2022/05/14 03:54:38;;;;;;;1999.90;999.90;;;10.20;99.90;;;;;;4949342;28;20061;-74
2022/05/14 03:57:06;;;;;;;1999.90;999.90;;;10.30;99.90;;;;;;4966224;28;20031;-74
2022/05/14 03:59:33;;;;;;;1999.90;999.90;;;10.30;99.90;;;;;;4932348;28;20077;-74
2022/05/14 04:01:59;;;;;;;1999.90;999.90;;;10.30;99.90;;;;;;5003386;28;20498;-74
2022/05/14 04:04:25;;;;;;;1999.90;999.90;;;10.40;99.90;;;;;;4980528;28;20453;-74
2022/05/14 04:06:51;;;;;;;1999.90;999.90;;;10.40;99.90;;;;;;4943185;28;20050;-74
2022/05/14 04:09:17;;;;;;;1999.90;999.90;;;10.40;99.90;;;;;;4932824;28;20051;-74
2022/05/14 04:11:42;;;;;;;1999.90;999.90;;;10.40;99.90;;;;;;4932319;28;20499;-72
2022/05/14 04:14:08;;;;;;;1999.90;999.90;;;10.30;99.90;;;;;;4932675;28;20047;-71
2022/05/14 04:16:34;;;;;;;1999.90;999.90;;;10.40;99.90;;;;;;4947776;28;20043;-72
2022/05/14 04:18:59;;;;;;;1999.90;999.90;;;10.40;99.90;;;;;;4946070;28;20092;-71
2022/05/14 04:21:25;;;;;;;1999.90;999.90;;;10.40;99.90;;;;;;4930542;29;20039;-72
2022/05/14 04:23:50;;;;;;;1999.90;999.90;;;10.40;99.90;;;;;;4964933;28;20838;-72
2022/05/14 04:26:16;;;;;;;1999.90;999.90;;;10.40;99.90;;;;;;4941307;29;20070;-72
2022/05/14 04:28:42;;;;;;;1999.90;999.90;;;10.50;99.90;;;;;;4983122;28;20055;-72
2022/05/14 04:31:07;;;;;;;1999.90;999.90;;;10.50;99.90;;;;;;4962304;28;20054;-72
2022/05/14 04:33:33;;;;;;;1999.90;999.90;;;10.60;99.90;;;;;;4976463;28;20507;-72
2022/05/14 04:35:59;;;;;;;1999.90;999.90;;;10.60;99.90;;;;;;4981571;28;20082;-72
2022/05/14 04:38:24;;;;;;;1999.90;999.90;;;10.60;99.90;;;;;;4972720;28;20043;-71
2022/05/14 04:40:50;;;;;;;1999.90;999.90;;;10.60;99.90;;;;;;4931791;28;20046;-72
2022/05/14 04:43:16;;;;;;;1999.90;999.90;;;10.70;99.90;;;;;;4936604;28;20578;-72
2022/05/14 04:45:43;;;;;;;1999.90;999.90;;;10.70;99.90;;;;;;5008927;28;20043;-72
2022/05/14 04:48:10;;;;;;;1999.90;999.90;;;10.80;99.90;;;;;;4939768;28;20100;-72
2022/05/14 04:50:36;;;;;;;1999.90;999.90;;;10.90;99.90;;;;;;4929875;28;20566;-72
2022/05/14 04:53:02;;;;;;;1999.90;999.90;;;11.00;99.90;;;;;;4958300;28;20055;-72
2022/05/14 04:55:27;;;;;;;1999.90;999.90;;;11.20;99.90;;;;;;4963748;28;20054;-72
2022/05/14 04:57:54;;;;;;;1999.90;999.90;;;11.40;99.90;;;;;;4949261;28;20035;-72
2022/05/14 05:00:20;;;;;;;1999.90;999.90;;;11.80;99.90;;;;;;4976113;28;20039;-72
2022/05/14 05:05:30;;;;;;;1999.90;999.90;;;12.60;99.90;;;;;;4964615;28;20390;-72
2022/05/14 05:07:57;;;;;;;1999.90;999.90;;;12.60;99.90;;;;;;4949196;28;20043;-72
2022/05/14 05:10:22;;;;;;;1999.90;999.90;;;12.50;99.90;;;;;;4947097;28;20053;-72
2022/05/14 05:12:48;;;;;;;1999.90;999.90;;;12.40;99.90;;;;;;4933547;29;20415;-72
2022/05/14 05:15:13;;;;;;;1999.90;999.90;;;12.30;99.90;;;;;;4930270;28;20035;-72
2022/05/14 05:17:39;;;;;;;1999.90;999.90;;;12.20;99.90;;;;;;4978215;28;20522;-72
2022/05/14 05:20:06;;;;;;;1999.90;999.90;;;12.20;99.90;;;;;;4982292;28;20122;-72
2022/05/14 05:22:32;;;;;;;1999.90;999.90;;;12.10;99.90;;;;;;4946219;28;20051;-72
2022/05/14 05:24:57;;;;;;;1999.90;999.90;;;12.00;99.90;;;;;;4952660;28;20483;-72
2022/05/14 05:27:23;;;;;;;1999.90;999.90;;;12.10;99.90;;;;;;4950695;28;20138;-72
2022/05/14 05:29:49;;;;;;;1999.90;999.90;;;12.20;99.90;;;;;;4981609;28;20055;-72
2022/05/14 05:32:15;;;;;;;1999.90;999.90;;;12.60;99.90;;;;;;4960005;28;20042;-72
2022/05/14 05:34:41;;;;;;;1999.90;999.90;;;13.50;99.90;;;;;;4951825;28;20043;-72
2022/05/14 05:37:07;;;;;;;1999.90;999.90;;;14.40;99.90;;;;;;4957970;28;20139;-72
2022/05/14 05:39:33;;;;;;;1999.90;999.90;;;14.70;99.90;;;;;;4933313;29;20514;-72
2022/05/14 05:41:59;;;;;;;1999.90;999.90;;;15.10;99.90;;;;;;4933104;28;20043;-72
2022/05/14 05:44:27;;;;;;;1999.90;999.90;;;15.50;99.90;;;;;;4981366;28;20514;-72
2022/05/14 05:46:54;;;;;;;1999.90;999.90;;;15.90;99.90;;;;;;4981113;28;20051;-72
2022/05/14 05:49:20;;;;;;;1999.90;999.90;;;16.40;99.90;;;;;;4934666;28;20125;-72
2022/05/14 05:51:46;;;;;;;1999.90;999.90;;;16.70;99.90;;;;;;4942764;28;20066;-72
2022/05/14 05:56:57;;;;;;;1999.90;999.90;;;16.90;99.90;;;;;;4968339;28;20051;-72
2022/05/14 05:59:24;;;;;;;1999.90;999.90;;;16.80;99.90;;;;;;4996828;28;20058;-72
2022/05/14 06:01:51;;;;;;;1999.90;999.90;;;17.00;99.90;;;;;;5000763;28;20130;-72
2022/05/14 06:04:17;;;;;;;1999.90;999.90;;;17.10;99.90;;;;;;4998957;28;20126;-72
2022/05/14 06:06:43;;;;;;;1999.90;999.90;;;17.10;99.90;;;;;;4962191;28;20138;-72
2022/05/14 06:09:14;;;;;;;1999.90;999.90;;;17.20;99.90;;;;;;4961454;28;20038;-72
2022/05/14 06:11:42;;;;;;;1999.90;999.90;;;17.40;99.90;;;;;;4989034;28;20051;-72
2022/05/14 06:14:08;;;;;;;1999.90;999.90;;;17.30;99.90;;;;;;4958692;28;20463;-72
2022/05/14 06:16:34;;;;;;;1999.90;999.90;;;17.30;99.90;;;;;;5000394;28;20087;-72
2022/05/14 06:19:00;;;;;;;1999.90;999.90;;;17.20;99.90;;;;;;4983989;28;20481;-72
2022/05/14 06:21:27;;;;;;;1999.90;999.90;;;17.20;99.90;;;;;;4997869;28;20054;-72
2022/05/14 06:23:54;;;;;;;1999.90;999.90;;;17.10;99.90;;;;;;4981579;28;20122;-72
2022/05/14 06:26:19;;;;;;;1999.90;999.90;;;16.80;99.90;;;;;;4937485;28;20080;-72
2022/05/14 06:28:45;;;;;;;1999.90;999.90;;;16.50;99.90;;;;;;4955799;28;20043;-72
2022/05/14 06:31:11;;;;;;;1999.90;999.90;;;16.50;99.90;;;;;;4955853;28;20047;-72
2022/05/14 06:33:37;;;;;;;1999.90;999.90;;;17.10;99.90;;;;;;4967235;28;20438;-72
2022/05/14 06:36:03;;;;;;;1999.90;999.90;;;17.80;99.90;;;;;;4988774;28;20069;-72
2022/05/14 06:38:28;;;;;;;1999.90;999.90;;;18.30;99.90;;;;;;4948956;28;20036;-72
2022/05/14 06:40:54;;;;;;;1999.90;999.90;;;18.80;99.90;;;;;;4957759;28;20049;-72
2022/05/14 06:43:20;;;;;;;1999.90;999.90;;;19.30;99.90;;;;;;4953470;28;20545;-72
2022/05/14 06:45:46;;;;;;;1999.90;999.90;;;19.60;99.90;;;;;;4983042;28;20517;-72
2022/05/14 06:48:12;;;;;;;1999.90;999.90;;;19.80;99.90;;;;;;4943760;28;20425;-72
2022/05/14 06:50:45;;;;;;;1999.90;999.90;;;19.90;99.90;;;;;;4936144;28;20417;-72
2022/05/14 06:53:12;;;;;;;1999.90;999.90;;;19.70;99.90;;;;;;4948208;28;20054;-72
2022/05/14 06:55:39;;;;;;;1999.90;999.90;;;19.50;99.90;;;;;;4957358;28;20111;-72
2022/05/14 06:58:09;;;;;;;1999.90;999.90;;;19.70;99.90;;;;;;4973012;28;20091;-72
2022/05/14 07:00:35;;;;;;;1999.90;999.90;;;20.10;99.90;;;;;;4968492;28;20042;-72
2022/05/14 07:08:29;;;;;;;1999.90;999.90;;;20.20;99.90;;;;;;4984472;28;20047;-72
2022/05/14 07:10:55;;;;;;;1999.90;999.90;;;20.60;99.90;;;;;;4969817;28;20434;-72
2022/05/14 07:13:21;;;;;;;1999.90;999.90;;;20.80;99.90;;;;;;4972767;28;20059;-72
2022/05/14 07:15:46;;;;;;;1999.90;999.90;;;21.10;99.90;;;;;;4961509;28;20034;-72
2022/05/14 07:18:12;;;;;;;1999.90;999.90;;;21.30;99.90;;;;;;4966798;28;20073;-72
2022/05/14 07:20:37;;;;;;;1999.90;999.90;;;21.40;99.90;;;;;;4962784;28;20070;-72
2022/05/14 07:23:03;;;;;;;1999.90;999.90;;;21.60;99.90;;;;;;4931811;28;20380;-72
2022/05/14 07:25:29;;;;;;;1999.90;999.90;;;21.70;99.10;;;;;;4957808;28;20057;-72
2022/05/14 07:27:55;;;;;;;1999.90;999.90;;;21.80;98.30;;;;;;4994033;28;20043;-72
2022/05/14 07:30:21;;;;;;;1999.90;999.90;;;21.60;98.60;;;;;;4964089;28;20375;-71
2022/05/14 07:32:47;;;;;;;1999.90;999.90;;;21.30;99.00;;;;;;4966652;28;20164;-72
2022/05/14 07:35:12;;;;;;;1999.90;999.90;;;21.20;98.70;;;;;;4959844;28;20048;-71
2022/05/14 07:37:58;;;;;;;1999.90;999.90;;;21.20;98.20;;;;;;4959784;28;20038;-72
2022/05/14 07:40:28;;;;;;;1999.90;999.90;;;20.70;97.80;;;;;;4981535;28;20540;-72
2022/05/14 07:42:58;;;;;;;1999.90;999.90;;;20.00;97.70;;;;;;4969777;28;20093;-71
2022/05/14 07:45:28;;;;;;;1999.90;999.90;;;19.30;97.90;;;;;;4952286;28;20452;-71
2022/05/14 07:47:56;;;;;;;1999.90;999.90;;;18.70;99.70;;;;;;4999051;28;20086;-72
2022/05/14 07:50:22;;;;;;;1999.90;999.90;;;18.40;99.90;;;;;;4949735;28;20063;-71
2022/05/14 07:52:48;;;;;;;1999.90;999.90;;;18.20;99.90;;;;;;4998892;28;20061;-71
2022/05/14 07:55:14;;;;;;;1999.90;999.90;;;18.20;99.90;;;;;;4959821;28;20483;-71
2022/05/14 07:57:40;;;;;;;1999.90;999.90;;;18.20;99.90;;;;;;4964880;28;20542;-71
2022/05/14 08:00:06;;;;;;;1999.90;999.90;;;18.30;99.90;;;;;;4962500;28;20046;-72
2022/05/14 08:02:34;;;;;;;1999.90;999.90;;;18.20;99.90;;;;;;4979143;28;20047;-71
2022/05/14 08:05:09;;;;;;;1999.90;999.90;;;18.20;99.90;;;;;;4942495;28;20082;-71
2022/05/14 08:07:36;;;;;;;1999.90;999.90;;;18.20;99.90;;;;;;4982291;28;20046;-71
2022/05/14 08:10:03;;;;;;;1999.90;999.90;;;18.20;99.90;;;;;;4987865;28;20051;-71
2022/05/14 08:12:41;;;;;;;1999.90;999.90;;;18.20;99.90;;;;;;4946426;28;20054;-72
2022/05/14 08:15:10;;;;;;;1999.90;999.90;;;18.20;99.90;;;;;;4951786;28;20393;-71
2022/05/14 08:17:35;;;;;;;1999.90;999.90;;;18.10;99.90;;;;;;4945774;28;20035;-71
2022/05/14 08:20:02;;;;;;;1999.90;999.90;;;18.10;99.90;;;;;;4957821;28;20594;-71
2022/05/14 08:25:12;;;;;;;1999.90;999.90;;;17.90;99.90;;;;;;4954345;28;20046;-71
2022/05/14 08:27:47;;;;;;;1999.90;999.90;;;18.40;99.90;;;;;;4971178;28;20462;-72
2022/05/14 08:30:25;;;;;;;1999.90;999.90;;;18.80;99.50;;;;;;4940540;28;20149;-72
2022/05/14 08:32:51;;;;;;;1999.90;999.90;;;19.60;99.00;;;;;;4948844;28;20076;-72
2022/05/14 08:35:18;;;;;;;1999.90;999.90;;;20.20;98.50;;;;;;4956713;28;20039;-71
2022/05/14 08:37:44;;;;;;;1999.90;999.90;;;20.60;96.40;;;;;;4946167;28;20133;-72
2022/05/14 08:40:26;;;;;;;1999.90;999.90;;;20.80;96.80;;;;;;4957310;28;20349;-72
2022/05/14 08:42:58;;;;;;;1999.90;999.90;;;20.70;95.30;;;;;;4987111;28;20510;-71
2022/05/14 08:45:27;;;;;;;1999.90;999.90;;;21.00;96.20;;;;;;4957167;28;20454;-71
2022/05/14 08:47:59;;;;;;;1999.90;999.90;;;21.30;94.40;;;;;;4934731;28;20392;-71
2022/05/14 08:50:30;;;;;;;1999.90;999.90;;;20.90;94.00;;;;;;4968067;28;20513;-71
2022/05/14 08:53:00;;;;;;;1999.90;999.90;;;20.90;95.40;;;;;;4949110;28;20126;-71
2022/05/14 08:55:37;;;;;;;1999.90;999.90;;;21.20;94.80;;;;;;4949501;28;20043;-71
2022/05/14 08:58:29;;;;;;;1999.90;999.90;;;21.80;95.50;;;;;;4949908;29;20436;-71
2022/05/14 09:01:01;;;;;;;1999.90;999.90;;;22.40;91.20;;;;;;4949836;29;20054;-72
2022/05/14 09:03:27;;;;;;;1999.90;999.90;;;22.70;92.00;;;;;;4946573;28;20042;-71
2022/05/14 09:05:55;;;;;;;1999.90;999.90;;;22.90;91.80;;;;;;4987746;28;20102;-72
2022/05/14 09:08:21;;;;;;;1999.90;999.90;;;23.00;90.20;;;;;;4951413;28;20518;-71
2022/05/14 09:10:59;;;;;;;1999.90;999.90;;;23.10;88.00;;;;;;4965570;28;20068;-72
2022/05/14 09:13:25;;;;;;;1999.90;999.90;;;23.10;86.00;;;;;;5001688;28;20529;-71
2022/05/14 09:15:59;;;;;;;1999.90;999.90;;;22.60;86.30;;;;;;5001272;28;20050;-72
2022/05/14 09:18:41;;;;;;;1999.90;999.90;;;22.10;85.50;;;;;;4989737;28;20040;-72
2022/05/14 09:21:21;;;;;;;1999.90;999.90;;;22.20;88.40;;;;;;4949228;28;20043;-71
2022/05/14 09:23:55;;;;;;;1999.90;999.90;;;22.70;87.20;;;;;;4949268;28;20380;-72
2022/05/14 09:26:26;;;;;;;1999.90;999.90;;;22.30;83.60;;;;;;4952018;28;20454;-72
2022/05/14 09:28:57;;;;;;;1999.90;999.90;;;21.80;79.60;;;;;;4968529;28;20054;-72
2022/05/14 09:31:30;;;;;;;1999.90;999.90;;;21.80;84.10;;;;;;4965528;28;20120;-72
2022/05/14 09:34:06;;;;;;;1999.90;999.90;;;22.00;85.00;;;;;;4983328;28;20050;-72
2022/05/14 09:36:35;;;;;;;1999.90;999.90;;;22.20;85.20;;;;;;4980384;28;20535;-72
2022/05/14 09:39:02;;;;;;;1999.90;999.90;;;22.10;84.00;;;;;;4935076;28;20074;-72
2022/05/14 09:41:28;;;;;;;1999.90;999.90;;;21.80;84.80;;;;;;4952545;28;20394;-71
2022/05/14 09:43:55;;;;;;;1999.90;999.90;;;21.40;81.50;;;;;;4967139;28;20046;-71
2022/05/14 09:46:34;;;;;;;1999.90;999.90;;;20.90;79.30;;;;;;4968006;28;20061;-71
2022/05/14 09:49:05;;;;;;;1999.90;999.90;;;20.60;83.30;;;;;;4995590;28;20051;-72
2022/05/14 09:51:47;;;;;;;1999.90;999.90;;;20.70;86.20;;;;;;4937735;28;20063;-72
2022/05/14 09:54:36;;;;;;;1999.90;999.90;;;21.30;85.80;;;;;;4947097;28;20066;-71
2022/05/14 09:57:08;;;;;;;1999.90;999.90;;;21.70;84.90;;;;;;4980215;28;20038;-73
2022/05/14 09:59:46;;;;;;;1999.90;999.90;;;22.00;84.20;;;;;;4950911;28;20120;-73
2022/05/14 10:02:40;;;;;;;1999.90;999.90;;;22.10;79.50;;;;;;4944725;28;20039;-73
2022/05/14 10:05:17;;;;;;;1999.90;999.90;;;21.70;77.70;;;;;;4930069;28;20132;-73
2022/05/14 10:07:48;;;;;;;1999.90;999.90;;;21.30;80.60;;;;;;4959871;28;20431;-73
2022/05/14 10:10:29;;;;;;;1999.90;999.90;;;21.50;80.40;;;;;;4947774;28;20039;-72
2022/05/14 10:13:04;;;;;;;1999.90;999.90;;;21.40;78.60;;;;;;4974173;28;20050;-72
2022/05/14 10:15:53;;;;;;;1999.90;999.90;;;21.00;77.60;;;;;;4961583;28;20073;-73
2022/05/14 10:19:04;;;;;;;1999.90;999.90;;;20.60;77.90;;;;;;4957955;28;20059;-72
2022/05/14 10:21:41;;;;;;;1999.90;999.90;;;20.20;78.70;;;;;;4953603;28;20403;-73
2022/05/14 10:27:47;;;;;;;1999.90;999.90;;;20.30;84.10;;;;;;4991999;28;20469;-73
2022/05/14 10:30:20;;;;;;;1999.90;999.90;;;21.20;81.40;;;;;;4955338;28;20047;-73
2022/05/14 10:32:49;;;;;;;1999.90;999.90;;;21.70;81.00;;;;;;4941185;28;20051;-73
2022/05/14 10:35:22;;;;;;;1999.90;999.90;;;22.40;83.00;;;;;;4950885;28;20104;-73
2022/05/14 10:37:55;;;;;;;;;;;23.00;77.20;;;;;;4984193;28;20046;-73
2022/05/14 10:40:42;;;;;;;1999.90;999.90;;;23.20;73.60;;;;;;4983803;28;20397;-73
2022/05/14 10:43:29;;;;;;;1999.90;999.90;;;22.90;71.70;;;;;;4948407;28;20144;-73
2022/05/14 10:45:57;;;;;;;1999.90;999.90;;;22.50;71.80;;;;;;4964197;28;20373;-73
2022/05/14 10:48:33;;;;;;;1999.90;999.90;;;22.20;74.80;;;;;;4942112;28;20918;-72
2022/05/14 10:51:00;;;;;;;1999.90;999.90;;;22.30;76.10;;;;;;4999613;28;20094;-73
2022/05/14 10:53:27;;;;;;;1999.90;999.90;;;22.40;73.60;;;;;;4959753;28;20487;-72
2022/05/14 10:55:58;;;;;;;1999.90;999.90;;;21.90;71.10;;;;;;4951657;28;20039;-72
2022/05/14 10:58:45;;;;;;;1999.90;999.90;;;21.70;75.70;;;;;;4967410;28;20047;-73
2022/05/14 11:01:46;;;;;;;1999.90;999.90;;;22.00;75.50;;;;;;4951635;28;20046;-73
2022/05/14 11:04:20;;;;;;;1999.90;999.90;;;22.50;74.60;;;;;;4948152;28;20399;-72
2022/05/14 11:06:59;;;;;;;1999.90;999.90;;;22.60;74.10;;;;;;4963684;28;20134;-72
2022/05/14 11:09:31;;;;;;;1999.90;999.90;;;22.40;72.00;;;;;;4964976;28;20050;-72
2022/05/14 11:12:01;;;;;;;1999.90;999.90;;;22.00;71.30;;;;;;4938224;29;20505;-73
2022/05/14 11:14:49;;;;;;;1999.90;999.90;;;21.60;71.30;;;;;;4932083;28;20075;-72
2022/05/14 11:17:32;;;;;;;1999.90;999.90;;;21.00;71.30;;;;;;4985975;28;20088;-72
2022/05/14 11:20:06;;;;;;;1999.90;999.90;;;20.80;75.00;;;;;;4966868;28;20051;-72
2022/05/14 11:22:40;;;;;;;1999.90;999.90;;;21.30;74.80;;;;;;4996601;28;20043;-73
2022/05/14 11:25:14;;;;;;;1999.90;999.90;;;21.80;74.30;;;;;;4966078;28;20108;-73
2022/05/14 11:27:41;;;;;;;1999.90;999.90;;;21.90;70.70;;;;;;4950927;28;20055;-73
2022/05/14 11:30:12;;;;;;;1999.90;999.90;;;21.70;68.90;;;;;;4938041;28;20423;-72
2022/05/14 11:32:46;;;;;;;1999.90;999.90;;;21.60;67.60;;;;;;4952827;28;20061;-73
2022/05/14 11:35:12;;;;;;;1999.90;999.90;;;21.40;69.00;;;;;;4931336;28;20059;-73
2022/05/14 11:37:43;;;;;;;1999.90;999.90;;;21.20;69.40;;;;;;4938525;28;20380;-72
2022/05/14 11:40:20;;;;;;;1999.90;999.90;;;20.90;67.60;;;;;;4993991;28;20043;-72
2022/05/14 11:43:07;;;;;;;1999.90;999.90;;;20.60;67.70;;;;;;4944047;28;20047;-72
2022/05/14 11:45:34;;;;;;;1999.90;999.90;;;20.20;68.20;;;;;;4947648;28;20042;-73
2022/05/14 11:48:29;;;;;;;1999.90;999.90;;;20.00;70.70;;;;;;4930178;28;20051;-72
2022/05/14 11:51:17;;;;;;;1999.90;999.90;;;20.70;72.50;;;;;;4937490;28;20059;-70
2022/05/14 11:54:05;;;;;;;1999.90;999.90;;;21.40;68.70;;;;;;4964749;28;20071;-73
2022/05/14 11:56:55;;;;;;;1999.90;999.90;;;21.60;68.20;;;;;;4966473;28;20049;-73
2022/05/14 11:59:49;;;;;;;1999.90;999.90;;;21.60;67.80;;;;;;4950521;28;20133;-70
2022/05/14 12:02:20;;;;;;;;;;;21.40;68.80;;;;;;4951445;28;20499;-70
2022/05/14 12:04:53;;;;;;;1999.90;999.90;;;21.70;69.30;;;;;;4947182;28;19922;-71
2022/05/14 12:07:57;;;;;;;1999.90;999.90;;;22.10;68.30;;;;;;4939610;28;20512;-70
2022/05/14 12:10:38;;;;;;;1999.90;999.90;;;22.20;67.10;;;;;;4945692;28;20058;-71
2022/05/14 12:13:32;;;;;;;1999.90;999.90;;;21.90;66.20;;;;;;4930660;28;20079;-71
2022/05/14 12:16:00;;;;;;;1999.90;999.90;;;21.60;67.10;;;;;;4947060;28;20043;-73
2022/05/14 12:18:27;;;;;;;1999.90;999.90;;;21.40;68.90;;;;;;4946761;28;20055;-72
2022/05/14 12:20:56;;;;;;;1999.90;999.90;;;21.30;67.70;;;;;;4946963;28;20047;-73
2022/05/14 12:23:36;;;;;;;1999.90;999.90;;;21.00;68.30;;;;;;4962410;28;20499;-73
2022/05/14 12:26:05;;;;;;;1999.90;999.90;;;20.80;68.20;;;;;;4978894;28;20043;-72
2022/05/14 12:28:34;;;;;;;1999.90;999.90;;;20.70;67.00;;;;;;4978051;28;20042;-72
2022/05/14 12:33:54;;;;;;;1999.90;999.90;;;21.00;70.00;;;;;;4953869;28;20142;-73
2022/05/14 12:36:20;;;;;;;1999.90;999.90;;;20.90;68.00;;;;;;4949572;28;20123;-73
2022/05/14 12:38:46;;;;;;;1999.90;999.90;;;20.90;68.40;;;;;;4998461;28;20093;-73